Terminal Aerodrome Forecast
Issued by NWS

Home | Current Version | Previous Version | Text Only | Print | Product List | Glossary On
Versions: 1 2 3 4 5 6 7 8 9 10 11 12 13 14 15 16 17 18
000
FTAK31 PANC 240536
TAFADQ
TAF
PADQ 240536Z 2406/2506 29008KT P6SM FEW030 OVC200
     FM240900 27005KT P6SM FEW030 BKN060
     FM241500 25007KT P6SM VCSH SCT030 BKN045
     FM242100 30009KT P6SM SCT045 SCT080=

USA.gov is the U.S. government's official web portal to all federal, state and local government web resources and services.